createdAt,value
2022-11-27T00:00:33.576Z,9.50
2022-11-27T00:03:19.011Z,9.60
2022-11-27T00:06:05.270Z,9.60
2022-11-27T00:08:50.887Z,9.50
2022-11-27T00:11:36.470Z,9.60
2022-11-27T00:14:22.555Z,9.70
2022-11-27T00:17:08.550Z,9.50
2022-11-27T00:19:54.120Z,9.60
2022-11-27T00:22:39.574Z,9.70
2022-11-27T00:25:25.398Z,9.80
2022-11-27T00:28:11.030Z,9.80
2022-11-27T00:31:00.532Z,9.40
2022-11-27T00:33:46.236Z,9.60
2022-11-27T00:36:33.847Z,9.60
2022-11-27T00:39:19.359Z,9.60
2022-11-27T00:42:05.211Z,9.50
2022-11-27T00:44:50.688Z,9.50
2022-11-27T00:47:37.922Z,9.40
2022-11-27T00:50:23.880Z,9.50
2022-11-27T00:53:09.722Z,9.40
2022-11-27T00:55:55.342Z,9.30
2022-11-27T00:58:40.711Z,9.20
2022-11-27T01:01:28.285Z,9.00
2022-11-27T01:04:16.385Z,9.10
2022-11-27T01:07:01.893Z,9.20
2022-11-27T01:09:47.937Z,9.30
2022-11-27T01:12:34.084Z,9.10
2022-11-27T01:15:19.730Z,9.30
2022-11-27T01:18:05.777Z,9.10
2022-11-27T01:20:54.171Z,9.20
2022-11-27T01:23:40.254Z,9.10
2022-11-27T01:26:26.529Z,9.10
2022-11-27T01:29:13.310Z,8.70
2022-11-27T01:31:59.254Z,8.40
2022-11-27T01:34:44.792Z,8.40
2022-11-27T01:37:31.810Z,8.40
2022-11-27T01:40:17.260Z,8.20
2022-11-27T01:43:02.762Z,8.40
2022-11-27T01:45:48.492Z,8.20
2022-11-27T01:48:34.364Z,8.10
2022-11-27T01:51:20.894Z,8.20
2022-11-27T01:54:08.965Z,8.40
2022-11-27T01:56:58.902Z,8.50
2022-11-27T01:59:45.680Z,8.50
2022-11-27T02:02:31.448Z,8.50
2022-11-27T02:05:20.824Z,8.60
2022-11-27T02:08:09.385Z,8.70
2022-11-27T02:11:08.029Z,8.60
2022-11-27T02:14:03.261Z,8.40
2022-11-27T02:16:55.659Z,8.60
2022-11-27T02:19:59.680Z,8.70
2022-11-27T02:23:01.682Z,8.50
2022-11-27T02:25:59.254Z,8.60
2022-11-27T02:28:59.180Z,8.60
2022-11-27T02:31:50.508Z,8.50
2022-11-27T02:34:43.092Z,8.40
2022-11-27T02:37:34.531Z,8.40
2022-11-27T02:40:27.227Z,8.30
2022-11-27T02:43:17.971Z,8.00
2022-11-27T02:46:08.081Z,8.30
2022-11-27T02:48:57.950Z,8.40
2022-11-27T02:51:51.433Z,8.40
2022-11-27T02:54:39.884Z,8.40
2022-11-27T02:57:27.735Z,8.50
2022-11-27T03:00:14.515Z,8.50
2022-11-27T03:03:08.844Z,8.20
2022-11-27T03:05:58.053Z,8.30
2022-11-27T03:08:51.433Z,8.50
2022-11-27T03:11:37.881Z,8.50
2022-11-27T03:14:24.862Z,8.70
2022-11-27T03:17:19.596Z,8.70
2022-11-27T03:20:13.020Z,8.80
2022-11-27T03:22:59.317Z,8.80
2022-11-27T03:25:44.808Z,8.70
2022-11-27T03:28:31.576Z,8.50
2022-11-27T03:31:17.535Z,8.70
2022-11-27T03:34:04.330Z,8.50
2022-11-27T03:36:51.220Z,8.60
2022-11-27T03:39:36.861Z,8.60
2022-11-27T03:42:27.826Z,8.90
2022-11-27T03:45:23.089Z,8.90
2022-11-27T03:48:18.680Z,8.90
2022-11-27T03:51:11.668Z,8.80
2022-11-27T03:54:04.722Z,8.80
2022-11-27T03:56:57.887Z,8.70
2022-11-27T03:59:45.880Z,8.50
2022-11-27T04:02:40.888Z,8.70
2022-11-27T04:05:26.675Z,8.80
2022-11-27T04:08:12.168Z,8.80
2022-11-27T04:10:59.255Z,9.00
2022-11-27T04:13:44.846Z,8.80
2022-11-27T04:16:30.637Z,8.70
2022-11-27T04:19:16.398Z,8.50
2022-11-27T04:22:02.093Z,8.50
2022-11-27T04:24:47.742Z,8.70
2022-11-27T04:27:34.832Z,8.80
2022-11-27T04:30:20.733Z,9.00
2022-11-27T04:33:06.309Z,9.10
2022-11-27T04:35:52.307Z,9.20
2022-11-27T04:38:37.618Z,9.20
2022-11-27T04:41:23.339Z,9.00
2022-11-27T04:44:11.218Z,9.30
2022-11-27T04:46:56.859Z,9.10
2022-11-27T04:49:42.290Z,9.10
2022-11-27T04:52:27.947Z,8.80
2022-11-27T04:55:13.480Z,8.90
2022-11-27T04:57:59.161Z,8.90
2022-11-27T05:00:46.459Z,9.00
2022-11-27T05:03:31.880Z,9.20
2022-11-27T05:06:17.449Z,9.20
2022-11-27T05:09:03.094Z,9.20
2022-11-27T05:11:48.614Z,9.30
2022-11-27T05:14:34.558Z,9.10
2022-11-27T05:17:21.743Z,9.00
2022-11-27T05:20:08.633Z,8.90
2022-11-27T05:22:54.557Z,9.00
2022-11-27T05:25:40.196Z,9.10
2022-11-27T05:28:27.005Z,9.10
2022-11-27T05:31:13.014Z,9.00
2022-11-27T05:34:00.275Z,8.90
2022-11-27T05:36:45.833Z,8.90
2022-11-27T05:39:31.715Z,9.10
2022-11-27T05:42:17.207Z,8.90
2022-11-27T05:45:03.234Z,9.10
2022-11-27T05:47:48.967Z,9.40
2022-11-27T05:50:36.023Z,9.30
2022-11-27T05:53:21.420Z,9.20
2022-11-27T05:56:10.198Z,9.00
2022-11-27T05:58:55.745Z,9.10
2022-11-27T06:01:42.468Z,9.20
2022-11-27T06:04:27.959Z,9.20
2022-11-27T06:07:14.742Z,9.10
2022-11-27T06:10:00.299Z,9.30
2022-11-27T06:12:45.951Z,9.30
2022-11-27T06:15:31.824Z,9.60
2022-11-27T06:18:17.511Z,9.60
2022-11-27T06:21:07.286Z,9.60
2022-11-27T06:23:55.943Z,9.50
2022-11-27T06:26:41.733Z,9.60
2022-11-27T06:29:27.267Z,9.70
2022-11-27T06:32:13.129Z,9.60
2022-11-27T06:34:58.752Z,9.60
2022-11-27T06:37:44.593Z,9.70
2022-11-27T06:40:31.353Z,9.80
2022-11-27T06:43:16.803Z,9.70
2022-11-27T06:46:04.216Z,9.60
2022-11-27T06:48:52.032Z,9.50
2022-11-27T06:51:37.609Z,9.40
2022-11-27T06:54:23.600Z,9.50
2022-11-27T06:57:11.352Z,9.60
2022-11-27T06:59:56.850Z,9.60
2022-11-27T07:02:42.577Z,9.70
2022-11-27T07:05:29.934Z,9.80
2022-11-27T07:08:15.521Z,9.70
2022-11-27T07:11:02.473Z,9.50
2022-11-27T07:13:50.816Z,9.50
2022-11-27T07:16:36.899Z,9.70
2022-11-27T07:19:22.576Z,9.50
2022-11-27T07:22:08.089Z,9.30
2022-11-27T07:24:55.424Z,9.40
2022-11-27T07:27:41.138Z,9.50
2022-11-27T07:30:28.231Z,9.50
2022-11-27T07:33:13.719Z,9.30
2022-11-27T07:36:00.183Z,9.30
2022-11-27T07:38:46.550Z,9.30
2022-11-27T07:41:34.076Z,9.00
2022-11-27T07:44:19.937Z,9.00
2022-11-27T07:47:06.968Z,8.80
2022-11-27T07:49:55.126Z,8.80
2022-11-27T07:52:42.219Z,8.90
2022-11-27T07:55:28.315Z,8.80
2022-11-27T07:58:13.898Z,8.70
2022-11-27T08:00:59.367Z,8.60
2022-11-27T08:03:47.186Z,8.70
2022-11-27T08:06:32.558Z,8.80
2022-11-27T08:09:18.068Z,8.70
2022-11-27T08:12:03.973Z,8.90
2022-11-27T08:14:49.884Z,8.70
2022-11-27T08:17:35.461Z,8.60
2022-11-27T08:20:22.707Z,8.60
2022-11-27T08:23:08.566Z,8.50
2022-11-27T08:25:54.245Z,8.60
2022-11-27T08:28:40.346Z,8.80
2022-11-27T08:31:26.255Z,8.60
2022-11-27T08:34:12.196Z,8.60
2022-11-27T08:36:59.974Z,8.40
2022-11-27T08:39:45.956Z,8.60
2022-11-27T08:42:31.848Z,8.90
2022-11-27T08:45:17.989Z,9.00
2022-11-27T08:48:04.202Z,9.30
2022-11-27T08:50:50.690Z,9.30
2022-11-27T08:53:37.965Z,9.10
2022-11-27T08:56:25.933Z,8.80
2022-11-27T08:59:11.748Z,8.80
2022-11-27T09:01:57.539Z,8.80
2022-11-27T09:04:43.767Z,8.90
2022-11-27T09:07:30.194Z,9.10
2022-11-27T09:10:17.840Z,9.10
2022-11-27T09:13:03.605Z,9.40
2022-11-27T09:15:49.333Z,9.00
2022-11-27T09:18:35.269Z,9.00
2022-11-27T09:21:22.887Z,9.10
2022-11-27T09:24:09.994Z,9.40
2022-11-27T09:26:57.272Z,9.50
2022-11-27T09:29:42.935Z,9.60
2022-11-27T09:32:28.513Z,9.70
2022-11-27T09:35:15.247Z,9.90
2022-11-27T09:38:01.177Z,10.00
2022-11-27T09:40:48.833Z,9.80
2022-11-27T09:43:40.244Z,9.90
2022-11-27T09:46:26.966Z,9.90
2022-11-27T09:49:15.326Z,9.90
2022-11-27T09:52:03.452Z,9.80
2022-11-27T09:54:56.816Z,10.10
2022-11-27T09:57:46.314Z,10.40
2022-11-27T10:00:33.381Z,10.50
2022-11-27T10:03:20.627Z,10.50
2022-11-27T10:06:11.817Z,10.20
2022-11-27T10:09:04.352Z,10.10
2022-11-27T10:11:55.303Z,10.40
2022-11-27T10:14:45.909Z,10.30
2022-11-27T10:17:35.264Z,10.20
2022-11-27T10:20:28.926Z,10.20
2022-11-27T10:23:18.327Z,10.30
2022-11-27T10:26:05.714Z,10.10
2022-11-27T10:28:59.218Z,10.20
2022-11-27T10:31:47.687Z,10.00
2022-11-27T10:34:38.608Z,10.30
2022-11-27T10:37:27.260Z,10.30
2022-11-27T10:40:18.984Z,9.80
2022-11-27T10:43:10.220Z,9.70
2022-11-27T10:45:57.830Z,9.90
2022-11-27T10:48:43.773Z,10.20
2022-11-27T10:51:32.120Z,10.40
2022-11-27T10:54:21.221Z,10.50
2022-11-27T10:57:24.789Z,10.60
2022-11-27T11:00:11.810Z,10.70
2022-11-27T11:03:01.671Z,10.90
2022-11-27T11:06:23.440Z,11.00
2022-11-27T11:09:03.945Z,10.90
2022-11-27T11:11:49.529Z,10.70
2022-11-27T11:14:34.977Z,10.70
2022-11-27T11:17:24.493Z,10.80
2022-11-27T11:20:15.319Z,10.70
2022-11-27T11:23:01.181Z,10.60
2022-11-27T11:25:50.845Z,10.90
2022-11-27T11:28:43.465Z,10.90
2022-11-27T11:31:29.792Z,11.00
2022-11-27T11:34:21.181Z,10.90
2022-11-27T11:37:08.795Z,11.30
2022-11-27T11:39:58.082Z,11.30
2022-11-27T11:42:51.775Z,11.10
2022-11-27T11:45:44.924Z,10.90
2022-11-27T11:48:30.868Z,11.00
2022-11-27T11:51:18.719Z,11.10
2022-11-27T11:54:10.343Z,11.00
2022-11-27T11:56:59.024Z,11.10
2022-11-27T11:59:50.632Z,11.00
2022-11-27T12:02:58.192Z,10.80
2022-11-27T12:05:55.246Z,10.50
2022-11-27T12:08:53.842Z,10.70
2022-11-27T12:11:45.384Z,10.60
2022-11-27T12:14:41.111Z,10.80
2022-11-27T12:17:39.691Z,10.80
2022-11-27T12:20:28.428Z,11.20
2022-11-27T12:23:31.940Z,11.40
2022-11-27T12:26:22.331Z,11.40
2022-11-27T12:29:28.707Z,11.40
2022-11-27T12:32:32.182Z,11.20
2022-11-27T12:35:32.476Z,11.40
2022-11-27T12:38:33.034Z,11.10
2022-11-27T12:41:25.670Z,11.30
2022-11-27T12:44:16.709Z,11.30
2022-11-27T12:47:04.453Z,11.20
2022-11-27T12:49:52.961Z,11.10
2022-11-27T12:52:41.120Z,10.90
2022-11-27T12:55:29.398Z,10.90
2022-11-27T12:58:18.244Z,11.00
2022-11-27T13:01:06.264Z,11.20
2022-11-27T13:04:00.462Z,11.30
2022-11-27T13:06:50.386Z,11.30
2022-11-27T13:09:39.431Z,11.30
2022-11-27T13:12:29.815Z,11.30
2022-11-27T13:15:19.114Z,11.20
2022-11-27T13:18:08.960Z,11.30
2022-11-27T13:20:54.736Z,11.30
2022-11-27T13:23:40.211Z,11.30
2022-11-27T13:26:28.500Z,11.40
2022-11-27T13:29:19.516Z,11.30
2022-11-27T13:32:05.269Z,11.40
2022-11-27T13:34:52.273Z,11.50
2022-11-27T13:37:39.454Z,11.30
2022-11-27T13:40:28.195Z,11.50
2022-11-27T13:43:20.284Z,11.30
2022-11-27T13:46:09.272Z,11.30
2022-11-27T13:48:56.086Z,11.60
2022-11-27T13:51:42.628Z,11.30
2022-11-27T13:54:29.258Z,11.10
2022-11-27T13:57:16.168Z,11.00
2022-11-27T14:00:03.240Z,11.00
2022-11-27T14:03:00.022Z,11.30
2022-11-27T14:05:45.773Z,11.20
2022-11-27T14:08:33.625Z,11.20
2022-11-27T14:11:28.406Z,11.00
2022-11-27T14:14:15.908Z,10.70
2022-11-27T14:17:04.923Z,10.60
2022-11-27T14:20:00.569Z,10.20
2022-11-27T14:23:14.188Z,10.50
2022-11-27T14:26:00.737Z,10.50
2022-11-27T14:28:48.907Z,10.50
2022-11-27T14:31:35.806Z,10.70
2022-11-27T14:34:25.271Z,10.10
2022-11-27T14:37:21.466Z,10.00
2022-11-27T14:40:12.750Z,9.90
2022-11-27T14:43:08.171Z,9.90
2022-11-27T14:45:57.436Z,9.90
2022-11-27T14:48:46.055Z,9.50
2022-11-27T14:51:34.192Z,9.50
2022-11-27T14:54:23.478Z,9.50
2022-11-27T14:57:14.127Z,9.40
2022-11-27T15:00:14.669Z,9.30
2022-11-27T15:03:07.993Z,9.50
2022-11-27T15:05:55.130Z,9.50
2022-11-27T15:08:40.853Z,9.60
2022-11-27T15:11:53.955Z,9.90
2022-11-27T15:14:35.542Z,10.20
2022-11-27T15:17:23.744Z,10.10
2022-11-27T15:20:13.228Z,10.10
2022-11-27T15:22:59.183Z,10.20
2022-11-27T15:25:45.414Z,10.10
2022-11-27T15:28:36.092Z,10.30
2022-11-27T15:31:23.637Z,10.30
2022-11-27T15:34:21.387Z,10.50
2022-11-27T15:37:20.132Z,10.50
2022-11-27T15:40:15.868Z,10.60
2022-11-27T15:43:01.908Z,10.50
2022-11-27T15:45:49.363Z,10.30
2022-11-27T15:48:35.165Z,10.30
2022-11-27T15:51:20.683Z,10.40
2022-11-27T15:54:06.483Z,10.30
2022-11-27T15:56:52.098Z,10.20
2022-11-27T15:59:38.017Z,9.90
2022-11-27T16:02:28.385Z,9.90
2022-11-27T16:05:14.438Z,10.20
2022-11-27T16:08:00.308Z,10.50
2022-11-27T16:10:45.842Z,10.50
2022-11-27T16:13:31.725Z,10.60
2022-11-27T16:16:18.020Z,10.60
2022-11-27T16:19:06.674Z,10.50
2022-11-27T16:21:52.744Z,10.60
2022-11-27T16:24:38.652Z,10.80
2022-11-27T16:27:24.500Z,10.80
2022-11-27T16:30:10.623Z,10.40
2022-11-27T16:32:56.534Z,10.40
2022-11-27T16:35:43.695Z,10.30
2022-11-27T16:38:29.969Z,10.20
2022-11-27T16:41:16.968Z,10.50
2022-11-27T16:44:08.904Z,10.90
2022-11-27T16:46:54.804Z,10.70
2022-11-27T16:49:40.428Z,10.40
2022-11-27T16:52:27.629Z,10.50
2022-11-27T16:55:13.581Z,10.40
2022-11-27T16:58:00.283Z,10.60
2022-11-27T17:00:48.445Z,10.80
2022-11-27T17:03:34.766Z,10.90
2022-11-27T17:06:24.977Z,10.70
2022-11-27T17:09:12.709Z,10.30
2022-11-27T17:11:58.694Z,10.40
2022-11-27T17:14:47.202Z,10.20
2022-11-27T17:17:39.946Z,10.20
2022-11-27T17:20:26.624Z,10.30
2022-11-27T17:23:12.829Z,10.20
2022-11-27T17:26:06.543Z,10.30
2022-11-27T17:28:56.320Z,10.10
2022-11-27T17:31:42.670Z,10.20
2022-11-27T17:34:28.736Z,10.50
2022-11-27T17:37:15.277Z,10.50
2022-11-27T17:40:01.754Z,11.00
2022-11-27T17:42:48.629Z,11.00
2022-11-27T17:45:34.210Z,10.80
2022-11-27T17:48:19.851Z,10.70
2022-11-27T17:51:07.047Z,10.60
2022-11-27T17:53:53.652Z,10.40
2022-11-27T17:56:39.645Z,10.40
2022-11-27T17:59:29.109Z,10.50
2022-11-27T18:04:56.212Z,10.40
2022-11-27T18:07:43.735Z,10.70
2022-11-27T18:10:29.987Z,10.80
2022-11-27T18:13:16.837Z,10.70
2022-11-27T18:16:07.308Z,10.60
2022-11-27T18:18:54.232Z,10.70
2022-11-27T18:21:41.596Z,10.50
2022-11-27T18:24:27.243Z,10.50
2022-11-27T18:27:15.688Z,10.30
2022-11-27T18:30:01.255Z,10.30
2022-11-27T18:32:46.878Z,10.40
2022-11-27T18:35:32.410Z,10.40
2022-11-27T18:38:19.389Z,10.40
2022-11-27T18:41:07.157Z,10.30
2022-11-27T18:43:53.642Z,10.00
2022-11-27T18:46:40.447Z,9.80
2022-11-27T18:49:26.248Z,9.90
2022-11-27T18:52:12.504Z,10.10
2022-11-27T18:55:00.746Z,10.20
2022-11-27T18:57:47.059Z,10.10
2022-11-27T19:00:32.833Z,9.80
2022-11-27T19:03:18.978Z,9.80
2022-11-27T19:06:08.128Z,9.90
2022-11-27T19:08:54.068Z,9.90
2022-11-27T19:11:42.148Z,9.90
2022-11-27T19:14:28.160Z,10.00
2022-11-27T19:17:13.950Z,10.10
2022-11-27T19:20:00.328Z,9.90
2022-11-27T19:22:47.238Z,10.10
2022-11-27T19:25:37.242Z,10.10
2022-11-27T19:28:24.778Z,10.00
2022-11-27T19:31:12.928Z,9.70
2022-11-27T19:34:00.498Z,9.60
2022-11-27T19:36:47.517Z,9.60
2022-11-27T19:39:34.182Z,9.60
2022-11-27T19:42:20.374Z,9.80
2022-11-27T19:45:10.090Z,9.50
2022-11-27T19:47:55.780Z,9.90
2022-11-27T19:50:42.356Z,9.70
2022-11-27T19:53:28.288Z,9.60
2022-11-27T19:56:13.830Z,9.60
2022-11-27T19:58:59.912Z,9.60
2022-11-27T20:01:48.310Z,9.40
2022-11-27T20:04:34.113Z,9.40
2022-11-27T20:07:20.125Z,9.30
2022-11-27T20:10:06.353Z,9.40
2022-11-27T20:12:52.213Z,9.20
2022-11-27T20:15:39.154Z,9.40
2022-11-27T20:18:27.912Z,9.70
2022-11-27T20:21:14.693Z,9.90
2022-11-27T20:24:02.353Z,9.50
2022-11-27T20:26:48.319Z,9.10
2022-11-27T20:29:33.984Z,9.20
2022-11-27T20:32:19.945Z,9.30
2022-11-27T20:35:10.661Z,9.40
2022-11-27T20:37:56.337Z,9.30
2022-11-27T20:40:42.098Z,9.10
2022-11-27T20:43:27.868Z,9.30
2022-11-27T20:46:13.917Z,9.20
2022-11-27T20:48:59.988Z,9.60
2022-11-27T20:51:51.259Z,9.50
2022-11-27T20:54:44.607Z,9.50
2022-11-27T20:57:33.175Z,9.50
2022-11-27T21:00:19.124Z,9.60
2022-11-27T21:03:07.870Z,9.70
2022-11-27T21:05:53.809Z,9.80
2022-11-27T21:08:41.721Z,9.70
2022-11-27T21:11:31.349Z,9.70
2022-11-27T21:14:17.722Z,9.70
2022-11-27T21:17:05.287Z,9.80
2022-11-27T21:19:53.302Z,9.60
2022-11-27T21:22:42.645Z,9.50
2022-11-27T21:25:34.447Z,9.80
2022-11-27T21:28:20.324Z,9.90
2022-11-27T21:31:09.238Z,9.70
2022-11-27T21:36:23.952Z,9.50
2022-11-27T21:39:13.956Z,9.70
2022-11-27T21:41:59.971Z,9.90
2022-11-27T21:44:51.163Z,9.90
2022-11-27T21:47:39.578Z,9.70
2022-11-27T21:50:28.491Z,9.80
2022-11-27T21:53:16.550Z,9.80
2022-11-27T21:56:05.264Z,9.90
2022-11-27T21:58:51.854Z,10.10
2022-11-27T22:01:38.853Z,9.90
2022-11-27T22:07:09.150Z,10.10
2022-11-27T22:09:57.950Z,10.20
2022-11-27T22:12:44.689Z,9.90
2022-11-27T22:15:32.535Z,9.80
2022-11-27T22:18:18.783Z,9.90
2022-11-27T22:21:11.552Z,9.60
2022-11-27T22:24:01.833Z,9.30
2022-11-27T22:26:51.611Z,9.10
2022-11-27T22:29:43.634Z,9.20
2022-11-27T22:32:32.931Z,9.30
2022-11-27T22:35:23.899Z,9.40
2022-11-27T22:38:10.198Z,9.60
2022-11-27T22:41:01.577Z,9.60
2022-11-27T22:43:48.283Z,9.70
2022-11-27T22:46:39.043Z,9.70
2022-11-27T22:49:28.389Z,10.10
2022-11-27T22:52:14.545Z,10.30
2022-11-27T22:55:04.248Z,10.50
2022-11-27T22:57:57.282Z,10.20
2022-11-27T23:00:44.702Z,10.10
2022-11-27T23:03:34.750Z,10.10
2022-11-27T23:06:27.422Z,10.00
2022-11-27T23:09:20.268Z,10.20
2022-11-27T23:12:07.532Z,9.80
2022-11-27T23:15:00.845Z,9.90
2022-11-27T23:17:52.901Z,9.50
2022-11-27T23:20:45.896Z,9.70
2022-11-27T23:23:38.182Z,10.10
2022-11-27T23:26:32.659Z,10.20
2022-11-27T23:29:19.015Z,10.40
2022-11-27T23:32:14.010Z,10.50
2022-11-27T23:35:20.465Z,10.60
2022-11-27T23:38:07.073Z,10.80
2022-11-27T23:40:52.898Z,10.50
2022-11-27T23:43:38.569Z,10.30
2022-11-27T23:46:26.348Z,10.60
2022-11-27T23:49:13.778Z,10.60
2022-11-27T23:51:59.220Z,10.30
2022-11-27T23:54:44.492Z,10.70
2022-11-27T23:57:29.958Z,10.90
